Time;durP1;ratioP1;P1;durP2;ratioP2;P2;SDS_P1;SDS_P2;PMS_P1;PMS_P2;Temp;Humidity;BMP_temperature;BMP_pressure;BME280_temperature;BME280_humidity;BME280_pressure;Samples;Min_cycle;Max_cycle;Signal;HPM_P1;HPM_P2
2022/08/19 00:02:35;;;;;;;10.70;9.28;;;;;;;26.82;57.97;100313.56;2285482;76;51405;-75
2022/08/19 00:05:37;;;;;;;11.75;10.03;;;;;;;26.76;57.92;100314.02;2333219;76;50488;-75
2022/08/19 00:08:39;;;;;;;10.63;9.55;;;;;;;26.62;58.47;100309.45;2333018;76;50331;-74
2022/08/19 00:11:43;;;;;;;12.63;9.33;;;;;;;26.69;58.24;100307.91;2338249;75;50648;-74
2022/08/19 00:14:45;;;;;;;15.75;9.03;;;;;;;26.72;58.16;100321.02;2321903;76;50622;-74
2022/08/19 00:17:47;;;;;;;23.32;9.15;;;;;;;26.70;57.79;100322.61;2318667;75;51354;-73
2022/08/19 00:20:50;;;;;;;15.38;9.83;;;;;;;26.73;57.68;100319.94;2314440;76;49577;-74
2022/08/19 00:23:52;;;;;;;11.40;8.78;;;;;;;26.67;57.76;100319.03;2321873;76;50312;-73
2022/08/19 00:26:54;;;;;;;12.90;9.10;;;;;;;26.73;57.48;100316.41;2339788;76;51582;-74
2022/08/19 00:29:58;;;;;;;13.62;9.75;;;;;;;26.73;57.44;100316.41;2296024;76;50359;-75
2022/08/19 00:33:00;;;;;;;10.58;9.53;;;;;;;26.78;57.33;100314.59;2341652;76;51462;-73
2022/08/19 00:36:05;;;;;;;14.38;9.13;;;;;;;26.77;57.27;100318.39;2295715;76;49934;-74
2022/08/19 00:39:07;;;;;;;13.05;10.08;;;;;;;26.81;57.10;100313.28;2322072;75;51512;-75
2022/08/19 00:42:09;;;;;;;17.42;10.10;;;;;;;26.78;57.21;100302.92;2341563;76;51462;-75
2022/08/19 00:45:15;;;;;;;11.25;9.50;;;;;;;26.74;57.44;100289.54;2341545;76;51587;-74
2022/08/19 00:48:18;;;;;;;18.98;9.65;;;;;;;26.71;57.63;100289.50;2330050;76;51552;-75
2022/08/19 00:51:22;;;;;;;14.55;10.48;;;;;;;26.69;57.46;100295.19;2340425;76;50412;-76
2022/08/19 00:54:24;;;;;;;11.68;9.60;;;;;;;26.78;57.30;100287.45;2321785;76;50904;-75
2022/08/19 00:57:33;;;;;;;10.05;8.90;;;;;;;26.83;57.31;100278.57;2321614;76;52273;-76
2022/08/19 01:00:37;;;;;;;12.25;9.13;;;;;;;26.79;57.13;100289.62;2341514;75;50835;-76
2022/08/19 01:03:40;;;;;;;11.57;9.80;;;;;;;26.74;56.90;100299.04;2322411;76;50663;-75
2022/08/19 01:06:42;;;;;;;13.20;10.18;;;;;;;26.79;56.87;100306.73;2321607;76;51522;-76
2022/08/19 01:09:44;;;;;;;12.05;10.35;;;;;;;26.75;56.80;100308.31;2321643;76;51002;-75
2022/08/19 01:12:47;;;;;;;9.55;8.63;;;;;;;26.73;57.13;100304.19;2313550;76;50383;-75
2022/08/19 01:15:52;;;;;;;10.28;9.35;;;;;;;26.77;56.69;100310.25;2333314;75;50735;-76
2022/08/19 01:18:56;;;;;;;12.63;11.28;;;;;;;26.77;56.88;100315.67;2324368;76;50753;-75
2022/08/19 01:22:13;;;;;;;14.73;11.65;;;;;;;26.38;58.39;100321.44;2250412;76;49990;-76
2022/08/19 01:25:18;;;;;;;12.20;11.00;;;;;;;26.20;58.91;100316.53;2282669;78;50425;-75
2022/08/19 01:28:22;;;;;;;12.65;10.58;;;;;;;26.27;59.03;100329.39;2282591;77;53012;-76
2022/08/19 01:31:26;;;;;;;12.82;11.50;;;;;;;26.33;58.55;100317.28;2282866;78;52316;-75
2022/08/19 01:34:29;;;;;;;12.63;10.93;;;;;;;26.20;59.32;100327.38;2249758;78;49606;-75
2022/08/19 01:37:31;;;;;;;10.40;9.40;;;;;;;26.24;59.34;100320.39;2225540;78;52158;-76
2022/08/19 01:40:34;;;;;;;13.78;9.90;;;;;;;26.34;58.98;100306.73;2282563;78;50686;-76
2022/08/19 01:43:36;;;;;;;12.47;9.48;;;;;;;26.40;58.66;100304.40;2265231;76;50119;-76
2022/08/19 01:46:39;;;;;;;11.70;9.35;;;;;;;26.44;58.54;100291.47;2249965;78;50223;-76
2022/08/19 01:49:41;;;;;;;12.70;10.08;;;;;;;26.43;58.61;100286.27;2249994;78;50095;-77
2022/08/19 01:52:43;;;;;;;11.65;9.55;;;;;;;26.16;59.42;100305.86;2282613;78;50347;-76
2022/08/19 01:55:47;;;;;;;11.08;9.83;;;;;;;26.20;59.25;100292.62;2282648;78;51641;-76
2022/08/19 01:58:58;;;;;;;11.53;10.03;;;;;;;26.10;59.73;100299.22;2249940;78;50782;-76
2022/08/19 02:02:01;;;;;;;13.90;9.28;;;;;;;26.13;59.18;100315.84;2281887;76;51674;-75
2022/08/19 02:05:03;;;;;;;10.00;9.00;;;;;;;26.28;58.54;100283.59;2284433;76;50216;-74
2022/08/19 02:08:05;;;;;;;23.20;9.93;;;;;;;26.41;58.12;100276.19;2300607;76;50866;-75
2022/08/19 02:11:08;;;;;;;15.93;9.55;;;;;;;26.46;58.13;100262.72;2311970;75;52385;-74
2022/08/19 02:14:10;;;;;;;17.57;9.73;;;;;;;26.51;57.86;100235.67;2322210;76;51545;-75
2022/08/19 02:17:12;;;;;;;14.95;9.65;;;;;;;26.57;57.94;100210.31;2307376;76;51512;-75
2022/08/19 02:20:14;;;;;;;12.98;9.28;;;;;;;26.60;57.95;100205.74;2341958;76;51481;-76
2022/08/19 02:23:16;;;;;;;11.68;8.95;;;;;;;26.62;57.92;100213.65;2342128;76;50342;-75
2022/08/19 02:26:19;;;;;;;10.28;9.08;;;;;;;26.60;57.72;100214.42;2295966;76;51032;-76
2022/08/19 02:29:21;;;;;;;12.05;9.28;;;;;;;26.62;57.58;100213.65;2322265;76;50362;-75
2022/08/19 02:32:24;;;;;;;9.80;8.58;;;;;;;26.65;57.50;100213.96;2342249;76;51461;-75
2022/08/19 02:35:26;;;;;;;10.38;8.58;;;;;;;26.65;57.50;100208.53;2296584;76;50374;-75
2022/08/19 02:38:28;;;;;;;12.60;8.40;;;;;;;26.65;57.37;100204.47;2341982;76;50374;-75
2022/08/19 02:41:32;;;;;;;10.35;8.25;;;;;;;26.66;57.34;100198.50;2290252;76;50406;-74
2022/08/19 02:44:35;;;;;;;9.93;8.17;;;;;;;26.70;57.32;100188.26;2329343;75;51442;-73
2022/08/19 02:47:37;;;;;;;12.90;7.70;;;;;;;26.73;57.31;100194.27;2322184;76;51542;-74
2022/08/19 02:50:40;;;;;;;10.53;8.10;;;;;;;26.73;57.18;100218.16;2322348;76;50389;-74
2022/08/19 02:53:43;;;;;;;10.55;8.13;;;;;;;26.75;57.06;100220.63;2342129;76;50756;-73
2022/08/19 02:56:46;;;;;;;12.85;8.40;;;;;;;26.71;57.07;100223.81;2322316;76;50451;-75
2022/08/19 02:59:48;;;;;;;8.75;7.85;;;;;;;26.73;57.06;100222.22;2296755;76;51595;-74
2022/08/19 03:02:50;;;;;;;10.98;8.35;;;;;;;26.75;56.89;100219.27;2342150;76;51475;-74
2022/08/19 03:05:54;;;;;;;12.47;8.60;;;;;;;26.75;56.85;100218.73;2322111;76;50883;-74
2022/08/19 03:08:57;;;;;;;10.03;8.93;;;;;;;26.75;56.91;100227.42;2320833;76;51624;-75
2022/08/19 03:11:59;;;;;;;12.95;8.68;;;;;;;26.76;56.88;100226.34;2336837;76;50459;-75
2022/08/19 03:15:02;;;;;;;10.72;8.53;;;;;;;26.79;56.85;100219.05;2242400;78;49583;-75
2022/08/19 03:18:04;;;;;;;11.55;8.48;;;;;;;26.81;56.70;100218.27;2266523;77;50718;-74
2022/08/19 03:21:06;;;;;;;9.45;8.05;;;;;;;26.82;56.74;100225.33;2242046;78;50739;-74
2022/08/19 03:24:09;;;;;;;11.15;8.00;;;;;;;26.82;56.65;100204.97;2243284;78;51475;-74
2022/08/19 03:27:12;;;;;;;10.05;8.30;;;;;;;26.80;56.61;100200.35;2267503;76;51678;-74
2022/08/19 03:30:14;;;;;;;10.80;8.40;;;;;;;26.82;56.63;100207.69;2242183;77;49690;-74
2022/08/19 03:33:16;;;;;;;15.08;8.18;;;;;;;26.79;56.51;100212.27;2243123;78;50139;-75
2022/08/19 03:36:23;;;;;;;10.03;8.25;;;;;;;26.79;56.57;100214.44;2279595;78;50253;-75
2022/08/19 03:39:25;;;;;;;9.03;8.10;;;;;;;26.78;56.40;100211.45;2242236;78;50096;-74
2022/08/19 03:42:28;;;;;;;10.18;8.10;;;;;;;26.79;56.40;100204.12;2298830;76;51563;-74
2022/08/19 03:45:30;;;;;;;9.73;8.68;;;;;;;26.81;56.28;100203.34;2262376;76;50760;-75
2022/08/19 03:48:33;;;;;;;9.35;8.38;;;;;;;26.81;56.28;100193.84;2316299;75;51586;-75
2022/08/19 03:51:37;;;;;;;12.58;9.20;;;;;;;26.82;56.23;100197.67;2316541;76;50401;-75
2022/08/19 03:54:40;;;;;;;9.68;7.95;;;;;;;26.82;56.23;100203.61;2291807;76;50173;-76
2022/08/19 03:57:42;;;;;;;8.98;8.08;;;;;;;26.81;56.23;100210.13;2316388;75;51314;-75
2022/08/19 04:00:44;;;;;;;8.83;8.03;;;;;;;26.83;56.13;100206.63;2316456;76;51518;-75
2022/08/19 04:03:46;;;;;;;9.28;7.72;;;;;;;26.84;56.07;100206.91;2292278;76;51510;-74
2022/08/19 04:06:49;;;;;;;12.95;8.20;;;;;;;26.83;56.11;100201.20;2316329;76;50684;-75
2022/08/19 04:09:51;;;;;;;9.50;8.50;;;;;;;26.82;56.05;100219.90;2316355;75;50779;-74
2022/08/19 04:12:54;;;;;;;9.33;7.40;;;;;;;26.77;56.17;100205.74;2293540;76;50281;-75
2022/08/19 04:15:56;;;;;;;11.25;8.68;;;;;;;26.79;56.04;100221.22;2258162;76;50705;-75
2022/08/19 04:19:00;;;;;;;9.10;8.20;;;;;;;26.80;56.06;100219.35;2289310;76;50925;-74
2022/08/19 04:22:03;;;;;;;11.97;8.38;;;;;;;26.80;56.01;100223.42;2318519;76;51611;-74
2022/08/19 04:25:05;;;;;;;11.53;8.78;;;;;;;26.79;56.00;100224.48;2319102;76;51543;-73
2022/08/19 04:28:09;;;;;;;10.23;8.93;;;;;;;26.82;55.95;100228.05;2298280;76;50268;-73
2022/08/19 04:31:19;;;;;;;9.38;8.33;;;;;;;26.81;55.94;100235.91;2316446;76;49753;-73
2022/08/19 04:34:23;;;;;;;9.53;8.53;;;;;;;26.79;55.90;100232.63;2292046;76;51609;-76
2022/08/19 04:37:26;;;;;;;9.78;8.05;;;;;;;26.79;55.73;100221.77;2316322;76;50634;-76
2022/08/19 04:43:50;;;;;;;16.25;8.45;;;;;;;26.79;55.69;100221.22;2262913;75;23521;-77
2022/08/19 04:46:52;;;;;;;12.07;8.20;;;;;;;26.80;55.59;100225.59;2306094;76;51498;-76
2022/08/19 04:49:54;;;;;;;11.03;8.73;;;;;;;26.82;55.57;100229.41;2318055;76;51483;-76
2022/08/19 04:52:56;;;;;;;11.45;8.13;;;;;;;26.83;55.64;100233.78;2255441;76;50935;-76
2022/08/19 04:56:01;;;;;;;14.33;8.55;;;;;;;26.86;55.57;100227.84;2305743;76;52236;-75
2022/08/19 04:59:03;;;;;;;10.83;9.57;;;;;;;26.87;55.39;100229.48;2306985;76;22371;-76
2022/08/19 05:02:07;;;;;;;20.65;8.33;;;;;;;26.89;55.33;100221.91;2280787;76;51425;-76
2022/08/19 05:05:09;;;;;;;11.53;7.92;;;;;;;26.88;55.38;100214.31;2318275;76;50639;-76
2022/08/19 05:08:13;;;;;;;10.48;7.95;;;;;;;26.91;55.39;100222.49;2305810;76;51065;-75
2022/08/19 05:11:25;;;;;;;12.45;8.48;;;;;;;26.92;55.35;100221.41;2317219;76;50644;-76
2022/08/19 05:14:29;;;;;;;9.00;7.97;;;;;;;26.91;55.48;100213.81;2307915;76;51407;-76
2022/08/19 05:17:31;;;;;;;12.43;8.35;;;;;;;26.94;55.34;100216.56;2241767;77;50150;-76
2022/08/19 05:23:53;;;;;;;11.30;8.18;;;;;;;26.99;55.52;100212.56;2341832;76;22340;-76
2022/08/19 05:27:00;;;;;;;11.08;9.08;;;;;;;26.97;55.46;100205.19;2321127;76;52135;-77
2022/08/19 05:29:59;;;;;;;9.63;8.73;;;;;;;26.96;55.65;100198.67;2320370;75;22430;-77
2022/08/19 05:33:01;;;;;;;11.70;8.58;;;;;;;26.99;55.41;100192.20;2341856;75;52087;-75
2022/08/19 05:36:04;;;;;;;14.13;9.43;;;;;;;27.02;55.41;100186.26;2341559;76;50358;-77
2022/08/19 05:39:08;;;;;;;12.63;9.10;;;;;;;27.04;55.64;100191.45;2295948;76;51499;-79
2022/08/19 05:42:11;;;;;;;12.03;9.03;;;;;;;27.10;55.43;100204.02;2317472;76;51087;-76
2022/08/19 05:45:14;;;;;;;10.88;9.00;;;;;;;27.08;55.33;100197.49;2310155;76;50760;-74
2022/08/19 05:48:20;;;;;;;15.53;9.05;;;;;;;27.09;55.36;100203.74;2327394;74;50090;-77
2022/08/19 05:51:20;;;;;;;11.90;8.93;;;;;;;27.05;55.35;100199.87;2345234;74;21925;-77
2022/08/19 05:54:25;;;;;;;9.75;8.35;;;;;;;27.03;55.32;100216.44;2341990;76;51396;-75
2022/08/19 05:57:28;;;;;;;;;;;;;;;27.02;55.27;100205.80;2324156;76;50299;-74
2022/08/19 06:00:31;;;;;;;11.50;9.05;;;;;;;27.04;55.22;100215.89;2341907;76;51604;-77
2022/08/19 06:03:34;;;;;;;15.32;9.35;;;;;;;27.02;55.27;100207.98;2342025;76;50661;-77
2022/08/19 06:06:36;;;;;;;15.32;9.15;;;;;;;27.03;55.16;100221.05;2296603;76;51038;-77
2022/08/19 06:09:38;;;;;;;11.50;9.58;;;;;;;27.00;55.45;100221.02;2325211;76;51441;-77
2022/08/19 06:12:41;;;;;;;11.08;9.43;;;;;;;26.99;55.49;100223.42;2321982;76;51672;-77
2022/08/19 06:15:44;;;;;;;11.75;9.83;;;;;;;26.84;55.87;100228.62;2260605;76;51209;-77
2022/08/19 06:18:46;;;;;;;10.90;9.78;;;;;;;26.86;56.09;100225.13;2333058;76;51548;-77
2022/08/19 06:21:50;;;;;;;12.47;10.58;;;;;;;26.79;56.15;100217.14;2311406;76;51521;-76
2022/08/19 06:24:52;;;;;;;11.95;10.23;;;;;;;26.66;56.44;100208.81;2286957;76;51578;-77
2022/08/19 06:27:54;;;;;;;11.38;9.68;;;;;;;26.62;56.84;100212.29;2335481;75;50597;-77
2022/08/19 06:30:56;;;;;;;11.45;10.30;;;;;;;26.67;56.62;100221.33;2287421;76;50313;-77
2022/08/19 06:33:58;;;;;;;13.35;11.15;;;;;;;26.55;56.98;100220.59;2334794;76;50765;-78
2022/08/19 06:37:01;;;;;;;11.95;10.38;;;;;;;26.56;56.86;100212.72;2311171;76;50700;-77
2022/08/19 06:40:04;;;;;;;11.97;10.68;;;;;;;26.48;57.28;100215.81;2268955;76;52596;-77
2022/08/19 06:43:06;;;;;;;14.60;11.40;;;;;;;26.48;57.21;100219.89;2271997;76;50623;-77
2022/08/19 06:46:11;;;;;;;12.85;11.38;;;;;;;26.45;57.37;100234.77;2314112;75;51383;-76
2022/08/19 06:49:13;;;;;;;15.18;11.25;;;;;;;26.46;57.12;100241.01;2281312;75;51437;-77
2022/08/19 06:52:15;;;;;;;12.90;11.48;;;;;;;26.50;57.11;100252.48;2305316;76;50293;-77
2022/08/19 06:55:18;;;;;;;14.75;12.73;;;;;;;26.52;57.33;100243.30;2311381;75;49564;-77
2022/08/19 06:58:20;;;;;;;14.63;11.85;;;;;;;26.49;57.53;100251.39;2310944;76;50303;-76
2022/08/19 07:01:22;;;;;;;12.75;11.43;;;;;;;26.42;57.66;100262.94;2311255;76;50673;-78
2022/08/19 07:04:26;;;;;;;12.90;11.60;;;;;;;26.50;57.14;100266.59;2292611;76;50928;-77
2022/08/19 07:07:28;;;;;;;12.68;11.35;;;;;;;26.54;57.30;100270.51;2333012;75;51538;-77
2022/08/19 07:10:32;;;;;;;16.82;12.15;;;;;;;26.56;57.07;100268.89;2311446;76;52343;-77
2022/08/19 07:13:37;;;;;;;19.20;12.35;;;;;;;26.51;57.66;100273.66;2301149;75;50294;-77
2022/08/19 07:16:39;;;;;;;;;;;;;;;26.54;57.68;100257.45;2310712;75;50411;-76
2022/08/19 07:19:42;;;;;;;17.10;12.37;;;;;;;26.53;57.92;100253.92;2333272;75;52524;-76
2022/08/19 07:22:45;;;;;;;19.30;13.48;;;;;;;26.53;57.87;100244.42;2278382;76;50369;-75
2022/08/19 07:25:47;;;;;;;18.35;12.73;;;;;;;26.47;58.22;100249.45;2277443;77;50286;-77
2022/08/19 07:28:49;;;;;;;18.77;13.05;;;;;;;26.53;58.07;100259.34;2282105;77;49602;-76
2022/08/19 07:31:52;;;;;;;17.35;12.80;;;;;;;26.54;57.67;100260.16;2308650;77;51474;-76
2022/08/19 07:34:54;;;;;;;14.07;12.30;;;;;;;26.46;58.15;100272.21;2308560;75;51616;-75
2022/08/19 07:37:56;;;;;;;16.50;13.15;;;;;;;26.47;57.97;100284.73;2276856;77;51046;-77
2022/08/19 07:40:58;;;;;;;14.38;12.60;;;;;;;26.45;58.01;100282.78;2277258;75;51541;-77
2022/08/19 07:44:03;;;;;;;15.55;13.22;;;;;;;26.43;58.08;100284.91;2342034;75;51489;-76
2022/08/19 07:47:04;;;;;;;15.20;12.47;;;;;;;26.43;57.94;100283.56;2302929;76;22292;-77
2022/08/19 07:50:08;;;;;;;14.30;11.97;;;;;;;26.45;57.80;100291.74;2302446;76;50645;-76
2022/08/19 07:53:12;;;;;;;14.58;12.55;;;;;;;26.49;57.79;100292.09;2302253;76;51010;-77
2022/08/19 07:56:14;;;;;;;15.60;13.98;;;;;;;26.51;57.62;100285.86;2302223;76;50696;-77
2022/08/19 07:59:17;;;;;;;16.37;13.40;;;;;;;26.45;58.27;100292.28;2331651;76;51643;-77
2022/08/19 08:02:19;;;;;;;17.35;13.38;;;;;;;26.46;58.38;100302.05;2302144;75;51966;-76
2022/08/19 08:12:05;;;;;;;16.80;14.25;;;;;;;26.38;58.36;100303.27;2308272;75;23432;-77
2022/08/19 08:15:11;;;;;;;16.50;14.03;;;;;;;26.39;58.44;100313.08;2337953;75;50771;-77
2022/08/19 08:18:13;;;;;;;16.67;14.68;;;;;;;26.36;58.52;100323.57;2316415;76;51559;-77
2022/08/19 08:21:15;;;;;;;17.57;14.80;;;;;;;26.35;58.30;100328.18;2291953;76;50679;-76
2022/08/19 08:24:18;;;;;;;18.32;14.13;;;;;;;26.40;58.36;100325.56;2266394;76;51381;-77
2022/08/19 08:27:20;;;;;;;15.88;14.15;;;;;;;26.39;58.62;100332.61;2291865;76;51037;-77
2022/08/19 08:30:24;;;;;;;17.80;14.25;;;;;;;26.46;58.13;100333.25;2316618;76;51510;-76
2022/08/19 08:33:27;;;;;;;16.85;15.05;;;;;;;26.46;58.34;100329.19;2316615;76;50450;-77
2022/08/19 08:36:33;;;;;;;17.65;15.78;;;;;;;26.48;58.53;100324.34;2267087;76;50746;-77
2022/08/19 08:39:34;;;;;;;18.42;14.58;;;;;;;26.56;58.41;100332.66;2316531;76;22964;-77
2022/08/19 08:42:37;;;;;;;17.77;15.23;;;;;;;26.56;58.17;100330.76;2273136;76;52502;-77
2022/08/19 08:45:45;;;;;;;21.07;15.72;;;;;;;26.43;58.80;100330.49;2245641;77;50431;-77
2022/08/19 08:48:59;;;;;;;18.15;14.87;;;;;;;26.47;58.50;100328.14;2267703;78;51465;-77
2022/08/19 08:52:10;;;;;;;17.90;15.35;;;;;;;26.49;58.54;100334.15;2244886;78;51298;-76
2022/08/19 08:55:15;;;;;;;21.70;16.60;;;;;;;26.50;58.59;100335.78;2268154;78;50346;-77
2022/08/19 08:58:24;;;;;;;21.15;16.93;;;;;;;26.46;58.95;100331.39;2267332;77;50492;-77
2022/08/19 09:01:26;;;;;;;18.80;16.52;;;;;;;26.49;59.08;100333.61;2268671;77;50309;-76
2022/08/19 09:04:28;;;;;;;18.92;15.88;;;;;;;26.58;58.69;100335.95;2245379;78;50045;-76
2022/08/19 09:07:49;;;;;;;19.60;17.17;;;;;;;26.52;58.73;100340.47;2245357;78;52722;-76
2022/08/19 09:10:53;;;;;;;20.45;18.32;;;;;;;26.55;58.75;100345.41;2268719;78;51457;-77
2022/08/19 09:14:02;;;;;;;19.05;17.15;;;;;;;26.57;59.21;100340.56;2317119;76;51557;-76
2022/08/19 09:17:07;;;;;;;20.85;18.55;;;;;;;26.55;59.35;100337.27;2292215;76;51312;-77
2022/08/19 09:20:12;;;;;;;23.92;19.00;;;;;;;26.51;59.77;100334.70;2316561;76;22293;-77
2022/08/19 09:23:15;;;;;;;21.95;19.65;;;;;;;26.52;60.18;100330.12;2316347;76;50695;-77
2022/08/19 09:26:20;;;;;;;21.57;18.05;;;;;;;26.53;60.53;100326.36;2266194;76;53672;-79
2022/08/19 09:29:22;;;;;;;25.95;19.42;;;;;;;26.50;60.16;100324.93;2316614;76;51483;-77
2022/08/19 09:32:25;;;;;;;21.15;19.05;;;;;;;26.54;60.07;100313.92;2260628;76;49578;-77
2022/08/19 09:35:29;;;;;;;21.45;19.32;;;;;;;26.52;60.08;100321.98;2292293;76;50488;-76
2022/08/19 09:38:31;;;;;;;22.75;20.43;;;;;;;26.50;60.14;100325.75;2291797;76;51485;-77
2022/08/19 09:41:33;;;;;;;23.45;19.12;;;;;;;26.54;60.33;100328.00;2267253;76;51065;-78
2022/08/19 09:44:36;;;;;;;24.90;19.85;;;;;;;26.44;60.45;100321.84;2300490;77;51507;-77
2022/08/19 09:47:38;;;;;;;21.62;19.52;;;;;;;26.49;60.21;100326.02;2282944;77;51407;-77
2022/08/19 09:50:40;;;;;;;20.77;18.75;;;;;;;26.50;60.21;100315.44;2258122;77;51539;-77
2022/08/19 09:53:45;;;;;;;24.02;19.17;;;;;;;26.52;59.96;100314.70;2283123;77;51533;-77
2022/08/19 09:56:48;;;;;;;21.50;19.10;;;;;;;26.48;60.30;100318.37;2282723;77;51299;-78
2022/08/19 09:59:50;;;;;;;20.50;18.40;;;;;;;26.53;59.90;100323.11;2283128;77;51595;-77
2022/08/19 10:02:52;;;;;;;27.05;19.77;;;;;;;26.52;60.06;100324.70;2282987;77;51517;-77
2022/08/19 10:05:54;;;;;;;22.52;19.35;;;;;;;26.47;60.56;100325.42;2257829;77;51276;-78
2022/08/19 10:08:56;;;;;;;20.60;18.42;;;;;;;26.48;60.41;100314.84;2304505;77;50383;-77
2022/08/19 10:12:00;;;;;;;23.98;18.55;;;;;;;26.53;60.34;100316.33;2285536;76;50520;-78
2022/08/19 10:15:03;;;;;;;21.55;19.35;;;;;;;26.54;60.21;100317.99;2273451;75;50434;-78
2022/08/19 10:18:05;;;;;;;20.62;18.42;;;;;;;26.51;60.19;100321.14;2321982;76;51529;-77
2022/08/19 10:21:10;;;;;;;20.25;17.98;;;;;;;26.48;60.49;100317.56;2322115;76;51541;-77
2022/08/19 10:24:13;;;;;;;21.73;17.50;;;;;;;26.48;60.45;100310.78;2340858;75;50504;-78
2022/08/19 10:27:15;;;;;;;19.57;16.97;;;;;;;26.48;60.20;100315.66;2295964;76;51429;-77
2022/08/19 10:30:17;;;;;;;18.57;16.65;;;;;;;26.44;60.38;100313.70;2279576;76;52479;-78
2022/08/19 10:33:20;;;;;;;18.12;16.32;;;;;;;26.36;60.85;100311.36;2296263;76;50006;-78
2022/08/19 10:36:22;;;;;;;17.57;15.72;;;;;;;26.40;60.79;100309.83;2341601;76;50742;-77
2022/08/19 10:39:25;;;;;;;17.50;15.38;;;;;;;26.34;60.67;100303.48;2321918;76;51550;-78
2022/08/19 10:42:27;;;;;;;18.25;16.35;;;;;;;26.36;60.61;100308.66;2321569;76;50074;-78
2022/08/19 10:45:29;;;;;;;18.65;16.75;;;;;;;26.48;60.69;100318.92;2259449;76;49548;-77
2022/08/19 10:48:32;;;;;;;19.70;17.52;;;;;;;26.37;60.73;100307.60;2295998;76;51447;-79
2022/08/19 10:58:17;;;;;;;17.95;15.95;;;;;;;26.36;60.52;100307.30;2304242;76;22341;-77
2022/08/19 11:01:20;;;;;;;17.48;15.20;;;;;;;26.33;60.74;100317.28;2342636;76;50830;-80
2022/08/19 11:04:22;;;;;;;18.73;15.60;;;;;;;26.33;60.60;100314.57;2297318;76;49738;-80
2022/08/19 11:07:26;;;;;;;16.07;14.58;;;;;;;26.28;60.73;100318.00;2296584;76;50699;-80
2022/08/19 11:10:28;;;;;;;15.78;14.23;;;;;;;26.31;60.69;100324.83;2322984;76;52077;-77
2022/08/19 11:13:35;;;;;;;16.57;14.90;;;;;;;26.22;60.73;100327.12;2267161;76;49786;-78
2022/08/19 11:16:41;;;;;;;21.57;15.53;;;;;;;26.24;60.68;100333.95;2332763;75;51462;-78
2022/08/19 11:19:43;;;;;;;16.77;14.73;;;;;;;26.33;60.47;100332.20;2319398;76;51579;-78
2022/08/19 11:22:45;;;;;;;16.93;15.32;;;;;;;26.21;60.78;100332.27;2307508;76;50055;-80
2022/08/19 11:25:47;;;;;;;17.12;15.30;;;;;;;26.24;60.96;100339.38;2319376;76;50720;-80
2022/08/19 11:28:55;;;;;;;17.55;15.43;;;;;;;26.24;60.97;100341.27;2263326;76;51095;-80
2022/08/19 11:31:54;;;;;;;16.37;14.50;;;;;;;26.23;60.85;100335.02;2306236;76;22322;-82
2022/08/19 11:34:56;;;;;;;17.07;15.20;;;;;;;26.24;60.62;100335.30;2319483;75;51955;-79
2022/08/19 11:37:59;;;;;;;17.05;14.15;;;;;;;26.23;60.78;100343.16;2265167;76;51028;-78
2022/08/19 11:41:05;;;;;;;16.07;14.38;;;;;;;26.21;60.94;100337.69;2281676;76;51290;-80
2022/08/19 11:44:07;;;;;;;;;;;;;;;26.17;61.01;100344.11;2299986;76;51952;-79
2022/08/19 11:47:09;;;;;;;16.62;14.63;;;;;;;26.17;60.74;100337.33;2293969;75;50074;-78
2022/08/19 11:50:12;;;;;;;15.75;14.28;;;;;;;26.20;61.02;100333.31;2268357;76;51422;-79
2022/08/19 11:53:14;;;;;;;18.73;13.93;;;;;;;26.14;61.10;100335.11;2317769;76;50490;-79
2022/08/19 11:56:16;;;;;;;18.42;13.90;;;;;;;26.18;60.88;100337.64;2268347;76;50325;-79
2022/08/19 11:59:18;;;;;;;15.05;13.60;;;;;;;26.22;60.56;100356.95;2293634;76;50447;-79
2022/08/19 12:02:21;;;;;;;15.23;13.62;;;;;;;26.22;60.95;100368.63;2263019;76;50025;-80
2022/08/19 12:05:23;;;;;;;14.78;13.40;;;;;;;26.14;60.99;100363.58;2317869;76;50212;-79
2022/08/19 12:08:25;;;;;;;16.57;13.25;;;;;;;26.13;61.01;100361.95;2293577;76;50667;-80
2022/08/19 12:11:28;;;;;;;14.00;12.58;;;;;;;26.17;61.20;100363.09;2318115;76;52219;-79
2022/08/19 12:14:31;;;;;;;13.78;12.43;;;;;;;26.18;61.07;100366.66;2298064;76;51216;-80
2022/08/19 12:17:33;;;;;;;16.70;13.58;;;;;;;26.16;60.97;100363.35;2307395;76;50640;-80
2022/08/19 12:20:36;;;;;;;15.03;12.33;;;;;;;26.15;61.06;100360.33;2320191;75;51485;-79
2022/08/19 12:23:39;;;;;;;12.88;11.63;;;;;;;26.21;60.82;100370.23;2320112;76;50389;-79
2022/08/19 12:26:42;;;;;;;16.55;12.75;;;;;;;26.21;60.80;100365.63;2281172;76;50048;-79
2022/08/19 12:29:44;;;;;;;13.83;11.97;;;;;;;26.14;61.15;100366.29;2307514;76;51730;-79
2022/08/19 12:32:46;;;;;;;12.93;11.60;;;;;;;26.21;60.85;100375.12;2319526;76;51910;-80
2022/08/19 12:35:49;;;;;;;15.70;11.78;;;;;;;26.23;60.67;100367.57;2263460;76;50009;-79
2022/08/19 12:38:51;;;;;;;11.08;9.98;;;;;;;26.25;60.48;100373.55;2319497;75;50594;-80
2022/08/19 12:41:53;;;;;;;12.78;10.78;;;;;;;26.23;60.35;100378.42;2319595;76;51528;-79
2022/08/19 12:44:56;;;;;;;14.20;11.25;;;;;;;26.23;60.51;100381.13;2297966;76;50969;-79
2022/08/19 12:47:58;;;;;;;13.03;11.05;;;;;;;26.21;60.40;100377.83;2281624;76;50633;-79
2022/08/19 12:51:01;;;;;;;11.57;10.38;;;;;;;26.23;60.26;100366.73;2319912;76;50627;-79
2022/08/19 12:54:04;;;;;;;12.63;11.05;;;;;;;26.20;60.32;100363.99;2308210;76;50030;-80
2022/08/19 12:57:10;;;;;;;14.15;11.30;;;;;;;26.36;60.04;100368.33;2320066;76;50286;-79
2022/08/19 13:00:14;;;;;;;10.98;9.90;;;;;;;26.32;60.05;100363.12;2282420;76;50121;-79
2022/08/19 13:03:16;;;;;;;11.85;10.75;;;;;;;26.27;59.93;100363.30;2308002;76;51633;-78
2022/08/19 13:06:18;;;;;;;12.82;11.12;;;;;;;26.26;59.97;100363.02;2282098;76;50785;-79
2022/08/19 13:09:20;;;;;;;14.18;10.68;;;;;;;26.25;59.82;100373.55;2308451;76;50166;-79
2022/08/19 13:12:26;;;;;;;12.58;10.88;;;;;;;26.18;60.07;100381.03;2298410;76;50611;-78
2022/08/19 13:15:28;;;;;;;11.63;10.43;;;;;;;26.21;59.83;100382.44;2308279;76;22294;-80
2022/08/19 13:18:31;;;;;;;12.85;11.45;;;;;;;26.18;59.81;100388.35;2320929;76;51612;-80
2022/08/19 13:21:33;;;;;;;14.93;11.75;;;;;;;26.23;59.67;100385.20;2308755;76;51216;-80
2022/08/19 13:24:36;;;;;;;13.10;11.70;;;;;;;26.21;59.82;100388.68;2265493;76;50083;-79
2022/08/19 13:27:39;;;;;;;11.53;10.28;;;;;;;26.18;59.84;100389.17;2308375;76;50700;-79
2022/08/19 13:34:01;;;;;;;12.95;11.65;;;;;;;26.31;59.39;100380.44;2284521;75;22463;-80
2022/08/19 13:37:03;;;;;;;12.60;11.03;;;;;;;26.29;59.45;100384.23;2307398;76;51476;-77
2022/08/19 13:40:07;;;;;;;11.38;10.20;;;;;;;26.26;59.47;100386.07;2244482;78;50972;-75
2022/08/19 13:43:10;;;;;;;13.45;10.88;;;;;;;26.33;59.29;100386.45;2292526;76;50798;-76
2022/08/19 13:46:17;;;;;;;14.15;10.65;;;;;;;26.37;59.05;100372.70;2277048;76;50794;-77
2022/08/19 13:49:17;;;;;;;13.03;11.18;;;;;;;26.37;58.97;100375.42;2289396;77;22298;-76
2022/08/19 13:52:19;;;;;;;14.00;10.72;;;;;;;26.40;58.81;100377.11;2284431;77;51511;-75
2022/08/19 13:55:21;;;;;;;13.90;11.85;;;;;;;26.46;58.74;100385.66;2283801;77;53656;-75
2022/08/19 13:58:24;;;;;;;12.65;11.00;;;;;;;26.46;58.72;100377.52;2257778;77;50680;-75
2022/08/19 14:01:26;;;;;;;15.93;11.60;;;;;;;26.47;58.64;100375.62;2304532;77;50713;-74
2022/08/19 14:04:28;;;;;;;13.93;10.98;;;;;;;26.50;58.47;100379.20;2282799;77;52598;-75
2022/08/19 14:07:30;;;;;;;14.87;12.00;;;;;;;26.50;58.62;100375.95;2257341;77;52158;-75
2022/08/19 14:10:33;;;;;;;14.40;11.78;;;;;;;26.49;58.60;100370.78;2282744;76;50667;-76
2022/08/19 14:13:35;;;;;;;14.85;12.35;;;;;;;26.51;58.64;100372.69;2253840;76;51726;-75
2022/08/19 14:16:37;;;;;;;13.18;11.40;;;;;;;26.49;58.59;100365.35;2316111;76;51582;-76
2022/08/19 14:19:40;;;;;;;13.32;11.35;;;;;;;26.55;58.61;100371.72;2291849;76;50305;-76
2022/08/19 14:22:42;;;;;;;19.73;11.63;;;;;;;26.57;58.55;100368.24;2310548;77;51665;-76